createdAt,value
2023-02-21T00:04:44.639Z,102.53
2023-02-21T00:15:05.067Z,89.30
2023-02-21T00:25:25.556Z,9.82
2023-02-21T00:35:46.213Z,11.45
2023-02-21T00:46:07.509Z,11.63
2023-02-21T00:56:29.447Z,10.27
2023-02-21T01:06:49.688Z,8.05
2023-02-21T01:17:13.468Z,8.85
2023-02-21T01:27:34.037Z,8.80
2023-02-21T01:37:55.215Z,7.18
2023-02-21T01:48:15.744Z,6.28
2023-02-21T01:58:38.613Z,6.05
2023-02-21T02:08:59.022Z,6.85
2023-02-21T02:19:13.283Z,5.88
2023-02-21T02:29:49.097Z,4.22
2023-02-21T02:39:56.811Z,3.90
2023-02-21T02:50:00.432Z,5.45
2023-02-21T03:00:04.413Z,5.15
2023-02-21T03:10:27.150Z,5.60
2023-02-21T03:20:29.644Z,5.20
2023-02-21T03:30:31.781Z,6.25
2023-02-21T03:40:34.497Z,5.40
2023-02-21T03:50:42.109Z,5.82
2023-02-21T04:00:44.166Z,3.40
2023-02-21T04:10:52.824Z,8.93
2023-02-21T04:20:54.621Z,2.72
2023-02-21T04:30:56.415Z,3.72
2023-02-21T04:40:58.429Z,3.80
2023-02-21T04:51:13.401Z,4.97
2023-02-21T05:01:19.540Z,3.30
2023-02-21T05:11:22.344Z,3.80
2023-02-21T05:21:30.210Z,5.10
2023-02-21T05:31:32.018Z,4.78
2023-02-21T05:41:38.051Z,4.40
2023-02-21T05:51:42.658Z,3.88
2023-02-21T06:01:47.877Z,3.83
2023-02-21T06:11:52.009Z,3.67
2023-02-21T06:21:53.719Z,3.38
2023-02-21T06:32:03.235Z,5.32
2023-02-21T06:42:17.169Z,3.53
2023-02-21T06:52:19.925Z,4.10
2023-02-21T07:02:31.796Z,4.23
2023-02-21T07:12:34.543Z,5.05
2023-02-21T07:22:39.568Z,3.83
2023-02-21T07:32:42.726Z,5.03
2023-02-21T07:42:49.510Z,4.93
2023-02-21T07:52:56.850Z,6.07
2023-02-21T08:02:59.353Z,3.97
2023-02-21T08:13:01.001Z,5.43
2023-02-21T08:23:04.040Z,4.63
2023-02-21T08:33:06.382Z,3.33
2023-02-21T08:43:09.155Z,5.13
2023-02-21T08:53:15.409Z,3.67
2023-02-21T09:03:17.423Z,4.65
2023-02-21T09:13:19.957Z,4.63
2023-02-21T09:23:22.244Z,3.63
2023-02-21T09:33:25.278Z,4.88
2023-02-21T09:43:33.412Z,3.80
2023-02-21T09:53:43.018Z,4.20
2023-02-21T10:04:26.203Z,4.10
2023-02-21T10:14:48.691Z,2.92
2023-02-21T10:24:52.009Z,4.03
2023-02-21T10:34:59.036Z,4.53
2023-02-21T10:45:04.122Z,3.75
2023-02-21T10:55:32.302Z,3.70
2023-02-21T11:05:38.277Z,5.25
2023-02-21T11:15:44.026Z,5.97
2023-02-21T11:25:49.188Z,4.63
2023-02-21T11:35:55.194Z,5.22
2023-02-21T11:46:18.968Z,4.07
2023-02-21T11:56:46.276Z,5.00
2023-02-21T12:07:08.666Z,4.47
2023-02-21T12:17:47.463Z,6.97
2023-02-21T12:27:56.130Z,4.97
2023-02-21T12:38:04.528Z,5.68
2023-02-21T12:48:17.151Z,5.90
2023-02-21T12:58:37.469Z,6.20
2023-02-21T13:08:51.458Z,4.15
2023-02-21T13:19:02.688Z,4.25
2023-02-21T13:29:22.890Z,4.80
2023-02-21T13:39:32.295Z,5.85
2023-02-21T13:49:58.072Z,3.17
2023-02-21T13:59:59.817Z,4.53
2023-02-21T14:10:17.041Z,4.70
2023-02-21T14:20:22.209Z,3.50
2023-02-21T14:30:30.070Z,4.05
2023-02-21T14:40:38.605Z,4.00
2023-02-21T14:51:18.031Z,6.38
2023-02-21T15:01:19.943Z,3.38
2023-02-21T15:21:28.351Z,3.95
2023-02-21T15:31:34.300Z,5.10
2023-02-21T15:41:46.418Z,4.32
2023-02-21T15:51:50.467Z,3.53
2023-02-21T16:02:16.499Z,5.03
2023-02-21T16:12:40.006Z,6.10
2023-02-21T16:23:06.825Z,21.05
2023-02-21T16:33:14.624Z,3.92
2023-02-21T16:43:24.414Z,15.85
2023-02-21T16:53:41.267Z,8.52
2023-02-21T17:14:56.256Z,16.65
2023-02-21T17:25:11.453Z,27.10
2023-02-21T17:45:50.879Z,230.15
2023-02-21T17:55:52.875Z,53.00
2023-02-21T18:05:57.004Z,67.77
2023-02-21T18:26:47.245Z,176.80
2023-02-21T18:36:51.780Z,247.90
2023-02-21T18:46:56.847Z,36.63
2023-02-21T18:57:01.239Z,211.10
2023-02-21T19:07:09.036Z,88.75
2023-02-21T19:17:12.548Z,25.55
2023-02-21T19:27:16.301Z,102.80
2023-02-21T19:37:21.738Z,66.32
2023-02-21T19:47:24.365Z,116.75
2023-02-21T19:57:32.099Z,115.00
2023-02-21T20:07:36.222Z,173.73
2023-02-21T20:17:39.963Z,218.27
2023-02-21T20:27:47.212Z,108.80
2023-02-21T20:38:05.148Z,105.32
2023-02-21T20:48:14.021Z,136.02
2023-02-21T20:58:18.880Z,121.80
2023-02-21T21:08:24.255Z,235.93
2023-02-21T21:18:27.953Z,5.55
2023-02-21T21:28:41.569Z,33.40
2023-02-21T21:38:45.293Z,64.07
2023-02-21T21:48:49.672Z,395.92
2023-02-21T21:58:52.550Z,8.15
2023-02-21T22:08:56.032Z,4.83
2023-02-21T22:29:07.078Z,136.63
2023-02-21T22:39:20.546Z,351.15
2023-02-21T22:49:22.360Z,430.08
2023-02-21T22:59:26.771Z,392.02
2023-02-21T23:09:30.293Z,385.92
2023-02-21T23:19:36.125Z,272.40
2023-02-21T23:29:54.522Z,313.38
2023-02-21T23:39:56.134Z,178.18
2023-02-21T23:49:59.559Z,242.52
